sensor_id;sensor_type;location;lat;lon;timestamp;P1;durP1;ratioP1;P2;durP2;ratioP2
26951;SDS011;14507;52.418;13.398;2023-04-15T00:00:36;34.92;;;22.92;;
26951;SDS011;14507;52.418;13.398;2023-04-15T00:03:02;37.75;;;23.60;;
26951;SDS011;14507;52.418;13.398;2023-04-15T00:05:29;33.88;;;22.48;;
26951;SDS011;14507;52.418;13.398;2023-04-15T00:07:55;34.72;;;23.55;;
26951;SDS011;14507;52.418;13.398;2023-04-15T00:10:22;37.20;;;23.90;;
26951;SDS011;14507;52.418;13.398;2023-04-15T00:12:49;36.53;;;23.60;;
26951;SDS011;14507;52.418;13.398;2023-04-15T00:15:15;34.20;;;22.42;;
26951;SDS011;14507;52.418;13.398;2023-04-15T00:17:40;36.45;;;23.10;;
26951;SDS011;14507;52.418;13.398;2023-04-15T00:20:07;40.17;;;24.60;;
26951;SDS011;14507;52.418;13.398;2023-04-15T00:22:33;37.55;;;23.05;;
26951;SDS011;14507;52.418;13.398;2023-04-15T00:24:58;43.60;;;25.73;;
26951;SDS011;14507;52.418;13.398;2023-04-15T00:27:24;35.50;;;23.45;;
26951;SDS011;14507;52.418;13.398;2023-04-15T00:29:50;39.28;;;25.02;;
26951;SDS011;14507;52.418;13.398;2023-04-15T00:32:15;39.03;;;23.92;;
26951;SDS011;14507;52.418;13.398;2023-04-15T00:34:41;38.00;;;23.90;;
26951;SDS011;14507;52.418;13.398;2023-04-15T00:37:08;38.95;;;24.63;;
26951;SDS011;14507;52.418;13.398;2023-04-15T00:39:34;41.33;;;25.63;;
26951;SDS011;14507;52.418;13.398;2023-04-15T00:42:00;40.35;;;25.58;;
26951;SDS011;14507;52.418;13.398;2023-04-15T00:44:26;41.10;;;26.02;;
26951;SDS011;14507;52.418;13.398;2023-04-15T00:46:53;45.45;;;27.63;;
26951;SDS011;14507;52.418;13.398;2023-04-15T00:49:19;45.08;;;26.20;;
26951;SDS011;14507;52.418;13.398;2023-04-15T00:51:44;39.38;;;24.65;;
26951;SDS011;14507;52.418;13.398;2023-04-15T00:54:10;42.25;;;26.38;;
26951;SDS011;14507;52.418;13.398;2023-04-15T00:56:36;40.75;;;26.00;;
26951;SDS011;14507;52.418;13.398;2023-04-15T00:59:03;43.10;;;26.98;;
26951;SDS011;14507;52.418;13.398;2023-04-15T01:01:30;42.22;;;26.38;;
26951;SDS011;14507;52.418;13.398;2023-04-15T01:03:57;44.80;;;27.77;;
26951;SDS011;14507;52.418;13.398;2023-04-15T01:06:23;44.97;;;27.60;;
26951;SDS011;14507;52.418;13.398;2023-04-15T01:08:49;45.53;;;27.67;;
26951;SDS011;14507;52.418;13.398;2023-04-15T01:11:15;46.20;;;27.25;;
26951;SDS011;14507;52.418;13.398;2023-04-15T01:13:41;47.50;;;28.55;;
26951;SDS011;14507;52.418;13.398;2023-04-15T01:16:07;49.22;;;29.45;;
26951;SDS011;14507;52.418;13.398;2023-04-15T01:18:33;51.53;;;29.23;;
26951;SDS011;14507;52.418;13.398;2023-04-15T01:21:00;49.17;;;29.45;;
26951;SDS011;14507;52.418;13.398;2023-04-15T01:23:29;51.88;;;29.65;;
26951;SDS011;14507;52.418;13.398;2023-04-15T01:25:55;48.08;;;29.67;;
26951;SDS011;14507;52.418;13.398;2023-04-15T01:28:22;52.03;;;31.23;;
26951;SDS011;14507;52.418;13.398;2023-04-15T01:30:48;54.40;;;30.90;;
26951;SDS011;14507;52.418;13.398;2023-04-15T01:33:13;51.05;;;30.75;;
26951;SDS011;14507;52.418;13.398;2023-04-15T01:35:40;52.10;;;30.60;;
26951;SDS011;14507;52.418;13.398;2023-04-15T01:38:08;50.47;;;30.20;;
26951;SDS011;14507;52.418;13.398;2023-04-15T01:40:34;51.55;;;30.08;;
26951;SDS011;14507;52.418;13.398;2023-04-15T01:43:00;56.13;;;30.80;;
26951;SDS011;14507;52.418;13.398;2023-04-15T01:45:26;57.45;;;32.35;;
26951;SDS011;14507;52.418;13.398;2023-04-15T01:47:52;53.22;;;30.25;;
26951;SDS011;14507;52.418;13.398;2023-04-15T01:50:18;51.38;;;30.67;;
26951;SDS011;14507;52.418;13.398;2023-04-15T01:52:44;56.08;;;31.35;;
26951;SDS011;14507;52.418;13.398;2023-04-15T01:55:11;56.53;;;32.58;;
26951;SDS011;14507;52.418;13.398;2023-04-15T01:57:38;59.45;;;31.38;;
26951;SDS011;14507;52.418;13.398;2023-04-15T02:00:04;53.67;;;31.08;;
26951;SDS011;14507;52.418;13.398;2023-04-15T02:02:31;54.55;;;30.70;;
26951;SDS011;14507;52.418;13.398;2023-04-15T02:04:57;52.97;;;31.02;;
26951;SDS011;14507;52.418;13.398;2023-04-15T02:07:23;52.88;;;30.77;;
26951;SDS011;14507;52.418;13.398;2023-04-15T02:09:49;58.92;;;32.45;;
26951;SDS011;14507;52.418;13.398;2023-04-15T02:12:15;57.20;;;31.30;;
26951;SDS011;14507;52.418;13.398;2023-04-15T02:14:40;58.15;;;31.27;;
26951;SDS011;14507;52.418;13.398;2023-04-15T02:17:06;59.08;;;31.70;;
26951;SDS011;14507;52.418;13.398;2023-04-15T02:19:35;61.47;;;32.85;;
26951;SDS011;14507;52.418;13.398;2023-04-15T02:22:01;53.95;;;31.30;;
26951;SDS011;14507;52.418;13.398;2023-04-15T02:24:27;57.22;;;31.83;;
26951;SDS011;14507;52.418;13.398;2023-04-15T02:26:53;54.67;;;31.45;;
26951;SDS011;14507;52.418;13.398;2023-04-15T02:29:20;57.80;;;31.23;;
26951;SDS011;14507;52.418;13.398;2023-04-15T02:31:47;53.47;;;31.73;;
26951;SDS011;14507;52.418;13.398;2023-04-15T02:34:12;57.88;;;32.10;;
26951;SDS011;14507;52.418;13.398;2023-04-15T02:36:38;57.45;;;32.45;;
26951;SDS011;14507;52.418;13.398;2023-04-15T02:39:04;58.00;;;31.98;;
26951;SDS011;14507;52.418;13.398;2023-04-15T02:41:30;54.55;;;31.13;;
26951;SDS011;14507;52.418;13.398;2023-04-15T02:43:56;62.10;;;32.72;;
26951;SDS011;14507;52.418;13.398;2023-04-15T02:46:22;59.47;;;31.42;;
26951;SDS011;14507;52.418;13.398;2023-04-15T02:48:48;59.22;;;32.22;;
26951;SDS011;14507;52.418;13.398;2023-04-15T02:51:15;58.35;;;32.38;;
26951;SDS011;14507;52.418;13.398;2023-04-15T02:53:45;62.78;;;32.60;;
26951;SDS011;14507;52.418;13.398;2023-04-15T02:56:11;58.40;;;32.45;;
26951;SDS011;14507;52.418;13.398;2023-04-15T02:58:39;61.50;;;32.45;;
26951;SDS011;14507;52.418;13.398;2023-04-15T03:01:05;64.63;;;32.10;;
26951;SDS011;14507;52.418;13.398;2023-04-15T03:03:32;63.03;;;31.40;;
26951;SDS011;14507;52.418;13.398;2023-04-15T03:05:58;58.10;;;32.53;;
26951;SDS011;14507;52.418;13.398;2023-04-15T03:08:24;56.50;;;31.20;;
26951;SDS011;14507;52.418;13.398;2023-04-15T03:10:50;59.45;;;31.95;;
26951;SDS011;14507;52.418;13.398;2023-04-15T03:13:17;55.50;;;31.65;;
26951;SDS011;14507;52.418;13.398;2023-04-15T03:15:46;62.20;;;32.53;;
26951;SDS011;14507;52.418;13.398;2023-04-15T03:18:12;58.03;;;29.77;;
26951;SDS011;14507;52.418;13.398;2023-04-15T03:20:38;60.78;;;31.98;;
26951;SDS011;14507;52.418;13.398;2023-04-15T03:23:03;56.53;;;30.55;;
26951;SDS011;14507;52.418;13.398;2023-04-15T03:25:29;55.95;;;29.60;;
26951;SDS011;14507;52.418;13.398;2023-04-15T03:27:55;50.85;;;29.63;;
26951;SDS011;14507;52.418;13.398;2023-04-15T03:30:21;57.15;;;29.85;;
26951;SDS011;14507;52.418;13.398;2023-04-15T03:32:46;54.90;;;29.90;;
26951;SDS011;14507;52.418;13.398;2023-04-15T03:35:12;54.75;;;30.10;;
26951;SDS011;14507;52.418;13.398;2023-04-15T03:37:38;55.13;;;30.08;;
26951;SDS011;14507;52.418;13.398;2023-04-15T03:40:03;59.05;;;31.00;;
26951;SDS011;14507;52.418;13.398;2023-04-15T03:42:29;55.47;;;29.20;;
26951;SDS011;14507;52.418;13.398;2023-04-15T03:44:55;52.97;;;29.17;;
26951;SDS011;14507;52.418;13.398;2023-04-15T03:47:21;54.70;;;29.60;;
26951;SDS011;14507;52.418;13.398;2023-04-15T03:49:46;55.50;;;29.48;;
26951;SDS011;14507;52.418;13.398;2023-04-15T03:52:12;54.83;;;29.90;;
26951;SDS011;14507;52.418;13.398;2023-04-15T03:54:38;50.75;;;29.13;;
26951;SDS011;14507;52.418;13.398;2023-04-15T03:57:03;55.20;;;29.77;;
26951;SDS011;14507;52.418;13.398;2023-04-15T03:59:29;49.97;;;28.77;;
26951;SDS011;14507;52.418;13.398;2023-04-15T04:01:55;50.25;;;29.15;;
26951;SDS011;14507;52.418;13.398;2023-04-15T04:04:20;50.85;;;27.80;;
26951;SDS011;14507;52.418;13.398;2023-04-15T04:06:46;48.95;;;27.27;;
26951;SDS011;14507;52.418;13.398;2023-04-15T04:09:12;58.05;;;28.00;;
26951;SDS011;14507;52.418;13.398;2023-04-15T04:11:37;45.15;;;27.27;;
26951;SDS011;14507;52.418;13.398;2023-04-15T04:14:03;52.50;;;28.05;;
26951;SDS011;14507;52.418;13.398;2023-04-15T04:16:29;51.97;;;27.73;;
26951;SDS011;14507;52.418;13.398;2023-04-15T04:18:54;51.38;;;26.80;;
26951;SDS011;14507;52.418;13.398;2023-04-15T04:21:20;51.03;;;27.25;;
26951;SDS011;14507;52.418;13.398;2023-04-15T04:23:46;46.55;;;26.48;;
26951;SDS011;14507;52.418;13.398;2023-04-15T04:26:11;47.28;;;26.42;;
26951;SDS011;14507;52.418;13.398;2023-04-15T04:28:37;48.35;;;26.45;;
26951;SDS011;14507;52.418;13.398;2023-04-15T04:31:05;47.92;;;27.30;;
26951;SDS011;14507;52.418;13.398;2023-04-15T04:33:31;43.25;;;24.23;;
26951;SDS011;14507;52.418;13.398;2023-04-15T04:35:57;41.00;;;24.67;;
26951;SDS011;14507;52.418;13.398;2023-04-15T04:38:23;41.42;;;23.70;;
26951;SDS011;14507;52.418;13.398;2023-04-15T04:40:48;42.10;;;24.58;;
26951;SDS011;14507;52.418;13.398;2023-04-15T04:43:14;46.70;;;24.40;;
26951;SDS011;14507;52.418;13.398;2023-04-15T04:45:40;38.88;;;24.05;;
26951;SDS011;14507;52.418;13.398;2023-04-15T04:48:06;41.65;;;23.17;;
26951;SDS011;14507;52.418;13.398;2023-04-15T04:50:33;39.47;;;23.45;;
26951;SDS011;14507;52.418;13.398;2023-04-15T04:52:59;38.88;;;22.45;;
26951;SDS011;14507;52.418;13.398;2023-04-15T04:55:25;40.22;;;23.17;;
26951;SDS011;14507;52.418;13.398;2023-04-15T04:57:51;36.85;;;21.33;;
26951;SDS011;14507;52.418;13.398;2023-04-15T05:00:17;36.72;;;22.45;;
26951;SDS011;14507;52.418;13.398;2023-04-15T05:02:43;36.65;;;21.77;;
26951;SDS011;14507;52.418;13.398;2023-04-15T05:05:09;37.20;;;21.80;;
26951;SDS011;14507;52.418;13.398;2023-04-15T05:07:38;36.58;;;21.95;;
26951;SDS011;14507;52.418;13.398;2023-04-15T05:10:04;36.53;;;20.95;;
26951;SDS011;14507;52.418;13.398;2023-04-15T05:12:30;36.17;;;20.75;;
26951;SDS011;14507;52.418;13.398;2023-04-15T05:14:56;34.85;;;21.17;;
26951;SDS011;14507;52.418;13.398;2023-04-15T05:17:22;33.85;;;21.05;;
26951;SDS011;14507;52.418;13.398;2023-04-15T05:19:47;37.80;;;20.98;;
26951;SDS011;14507;52.418;13.398;2023-04-15T05:22:13;35.72;;;20.58;;
26951;SDS011;14507;52.418;13.398;2023-04-15T05:24:39;35.47;;;19.13;;
26951;SDS011;14507;52.418;13.398;2023-04-15T05:27:05;31.45;;;18.90;;
26951;SDS011;14507;52.418;13.398;2023-04-15T05:29:32;33.53;;;19.67;;
26951;SDS011;14507;52.418;13.398;2023-04-15T05:31:58;34.55;;;18.73;;
26951;SDS011;14507;52.418;13.398;2023-04-15T05:34:23;32.75;;;19.10;;
26951;SDS011;14507;52.418;13.398;2023-04-15T05:36:49;30.00;;;18.10;;
26951;SDS011;14507;52.418;13.398;2023-04-15T05:39:15;30.52;;;18.00;;
26951;SDS011;14507;52.418;13.398;2023-04-15T05:41:40;33.03;;;19.50;;
26951;SDS011;14507;52.418;13.398;2023-04-15T05:44:06;30.35;;;18.85;;
26951;SDS011;14507;52.418;13.398;2023-04-15T05:46:31;30.15;;;19.70;;
26951;SDS011;14507;52.418;13.398;2023-04-15T05:48:57;30.70;;;18.83;;
26951;SDS011;14507;52.418;13.398;2023-04-15T05:51:23;29.20;;;17.60;;
26951;SDS011;14507;52.418;13.398;2023-04-15T05:53:48;28.92;;;17.95;;
26951;SDS011;14507;52.418;13.398;2023-04-15T05:56:14;28.23;;;17.75;;
26951;SDS011;14507;52.418;13.398;2023-04-15T05:58:40;28.55;;;17.08;;
26951;SDS011;14507;52.418;13.398;2023-04-15T06:01:05;29.00;;;17.88;;
26951;SDS011;14507;52.418;13.398;2023-04-15T06:03:31;28.92;;;17.27;;
26951;SDS011;14507;52.418;13.398;2023-04-15T06:05:57;30.27;;;18.42;;
26951;SDS011;14507;52.418;13.398;2023-04-15T06:08:23;28.85;;;17.38;;
26951;SDS011;14507;52.418;13.398;2023-04-15T06:10:48;27.58;;;16.23;;
26951;SDS011;14507;52.418;13.398;2023-04-15T06:13:14;28.33;;;17.00;;
26951;SDS011;14507;52.418;13.398;2023-04-15T06:15:41;25.85;;;16.48;;
26951;SDS011;14507;52.418;13.398;2023-04-15T06:18:07;28.02;;;16.30;;
26951;SDS011;14507;52.418;13.398;2023-04-15T06:20:32;27.98;;;17.20;;
26951;SDS011;14507;52.418;13.398;2023-04-15T06:22:58;25.10;;;15.93;;
26951;SDS011;14507;52.418;13.398;2023-04-15T06:25:23;24.88;;;15.20;;
26951;SDS011;14507;52.418;13.398;2023-04-15T06:27:49;25.13;;;15.45;;
26951;SDS011;14507;52.418;13.398;2023-04-15T06:30:15;27.45;;;15.18;;
26951;SDS011;14507;52.418;13.398;2023-04-15T06:32:41;24.70;;;15.80;;
26951;SDS011;14507;52.418;13.398;2023-04-15T06:35:06;26.05;;;15.00;;
26951;SDS011;14507;52.418;13.398;2023-04-15T06:37:32;23.83;;;14.80;;
26951;SDS011;14507;52.418;13.398;2023-04-15T06:39:58;27.33;;;15.05;;
26951;SDS011;14507;52.418;13.398;2023-04-15T06:42:23;25.67;;;15.02;;
26951;SDS011;14507;52.418;13.398;2023-04-15T06:44:49;24.77;;;15.20;;
26951;SDS011;14507;52.418;13.398;2023-04-15T06:47:21;23.75;;;15.25;;
26951;SDS011;14507;52.418;13.398;2023-04-15T06:49:46;23.15;;;14.23;;
26951;SDS011;14507;52.418;13.398;2023-04-15T06:52:12;25.92;;;15.02;;
26951;SDS011;14507;52.418;13.398;2023-04-15T06:54:38;21.80;;;13.55;;
26951;SDS011;14507;52.418;13.398;2023-04-15T06:57:04;21.80;;;14.07;;
26951;SDS011;14507;52.418;13.398;2023-04-15T06:59:31;27.60;;;14.75;;
26951;SDS011;14507;52.418;13.398;2023-04-15T07:01:56;22.73;;;13.98;;
26951;SDS011;14507;52.418;13.398;2023-04-15T07:04:22;21.27;;;13.20;;
26951;SDS011;14507;52.418;13.398;2023-04-15T07:06:48;24.35;;;13.57;;
26951;SDS011;14507;52.418;13.398;2023-04-15T07:09:14;23.50;;;13.93;;
26951;SDS011;14507;52.418;13.398;2023-04-15T07:11:39;22.77;;;13.88;;
26951;SDS011;14507;52.418;13.398;2023-04-15T07:14:05;22.40;;;13.45;;
26951;SDS011;14507;52.418;13.398;2023-04-15T07:16:31;21.58;;;13.27;;
26951;SDS011;14507;52.418;13.398;2023-04-15T07:18:57;20.65;;;13.60;;
26951;SDS011;14507;52.418;13.398;2023-04-15T07:21:23;21.05;;;12.75;;
26951;SDS011;14507;52.418;13.398;2023-04-15T07:23:49;21.75;;;13.68;;
26951;SDS011;14507;52.418;13.398;2023-04-15T07:26:14;23.38;;;12.85;;
26951;SDS011;14507;52.418;13.398;2023-04-15T07:28:40;22.52;;;13.50;;
26951;SDS011;14507;52.418;13.398;2023-04-15T07:31:06;22.50;;;12.55;;
26951;SDS011;14507;52.418;13.398;2023-04-15T07:33:31;22.90;;;13.70;;
26951;SDS011;14507;52.418;13.398;2023-04-15T07:35:57;20.33;;;12.02;;
26951;SDS011;14507;52.418;13.398;2023-04-15T07:38:22;29.60;;;14.27;;
26951;SDS011;14507;52.418;13.398;2023-04-15T07:40:48;23.02;;;13.63;;
26951;SDS011;14507;52.418;13.398;2023-04-15T07:43:14;21.17;;;14.15;;
26951;SDS011;14507;52.418;13.398;2023-04-15T07:45:40;20.65;;;13.40;;
26951;SDS011;14507;52.418;13.398;2023-04-15T07:48:06;20.33;;;12.77;;
26951;SDS011;14507;52.418;13.398;2023-04-15T07:50:32;24.30;;;14.00;;
26951;SDS011;14507;52.418;13.398;2023-04-15T07:52:58;24.88;;;14.80;;
26951;SDS011;14507;52.418;13.398;2023-04-15T07:55:23;23.10;;;15.50;;
26951;SDS011;14507;52.418;13.398;2023-04-15T07:57:49;20.35;;;14.68;;
26951;SDS011;14507;52.418;13.398;2023-04-15T08:00:15;26.95;;;15.45;;
26951;SDS011;14507;52.418;13.398;2023-04-15T08:02:41;27.38;;;16.42;;
26951;SDS011;14507;52.418;13.398;2023-04-15T08:05:07;24.65;;;15.85;;
26951;SDS011;14507;52.418;13.398;2023-04-15T08:07:35;24.13;;;15.93;;
26951;SDS011;14507;52.418;13.398;2023-04-15T08:10:02;22.02;;;15.52;;
26951;SDS011;14507;52.418;13.398;2023-04-15T08:12:28;25.90;;;15.32;;
26951;SDS011;14507;52.418;13.398;2023-04-15T08:14:53;23.88;;;15.18;;
26951;SDS011;14507;52.418;13.398;2023-04-15T08:17:20;23.42;;;15.18;;
26951;SDS011;14507;52.418;13.398;2023-04-15T08:19:46;22.25;;;15.55;;
26951;SDS011;14507;52.418;13.398;2023-04-15T08:22:12;23.58;;;15.38;;
26951;SDS011;14507;52.418;13.398;2023-04-15T08:24:38;22.25;;;14.82;;
26951;SDS011;14507;52.418;13.398;2023-04-15T08:27:04;22.98;;;15.50;;
26951;SDS011;14507;52.418;13.398;2023-04-15T08:29:30;24.45;;;15.38;;
26951;SDS011;14507;52.418;13.398;2023-04-15T08:31:57;25.73;;;16.42;;
26951;SDS011;14507;52.418;13.398;2023-04-15T08:34:24;27.08;;;15.43;;
26951;SDS011;14507;52.418;13.398;2023-04-15T08:36:50;27.27;;;15.27;;
26951;SDS011;14507;52.418;13.398;2023-04-15T08:39:16;23.50;;;15.07;;
26951;SDS011;14507;52.418;13.398;2023-04-15T08:41:46;26.10;;;14.82;;
26951;SDS011;14507;52.418;13.398;2023-04-15T08:44:27;22.90;;;15.43;;
26951;SDS011;14507;52.418;13.398;2023-04-15T08:49:21;23.40;;;15.50;;
26951;SDS011;14507;52.418;13.398;2023-04-15T08:51:51;25.85;;;15.50;;
26951;SDS011;14507;52.418;13.398;2023-04-15T08:54:17;27.05;;;16.13;;
26951;SDS011;14507;52.418;13.398;2023-04-15T08:56:43;25.67;;;16.45;;
26951;SDS011;14507;52.418;13.398;2023-04-15T08:59:09;22.77;;;15.60;;
26951;SDS011;14507;52.418;13.398;2023-04-15T09:01:36;22.55;;;15.80;;
26951;SDS011;14507;52.418;13.398;2023-04-15T09:04:02;24.40;;;15.98;;
26951;SDS011;14507;52.418;13.398;2023-04-15T09:08:56;23.55;;;16.10;;
26951;SDS011;14507;52.418;13.398;2023-04-15T09:11:21;25.35;;;17.33;;
26951;SDS011;14507;52.418;13.398;2023-04-15T09:13:47;26.52;;;17.38;;
26951;SDS011;14507;52.418;13.398;2023-04-15T09:16:13;25.67;;;16.38;;
26951;SDS011;14507;52.418;13.398;2023-04-15T09:18:39;21.08;;;15.75;;
26951;SDS011;14507;52.418;13.398;2023-04-15T09:21:09;23.05;;;15.75;;
26951;SDS011;14507;52.418;13.398;2023-04-15T09:23:37;23.88;;;15.15;;
26951;SDS011;14507;52.418;13.398;2023-04-15T09:26:05;22.67;;;15.25;;
26951;SDS011;14507;52.418;13.398;2023-04-15T09:28:31;22.55;;;15.88;;
26951;SDS011;14507;52.418;13.398;2023-04-15T09:33:27;26.77;;;16.35;;
26951;SDS011;14507;52.418;13.398;2023-04-15T09:35:57;23.17;;;16.65;;
26951;SDS011;14507;52.418;13.398;2023-04-15T09:38:27;23.85;;;16.08;;
26951;SDS011;14507;52.418;13.398;2023-04-15T09:40:53;24.73;;;15.70;;
26951;SDS011;14507;52.418;13.398;2023-04-15T09:43:19;23.33;;;16.30;;
26951;SDS011;14507;52.418;13.398;2023-04-15T09:45:48;22.83;;;16.45;;
26951;SDS011;14507;52.418;13.398;2023-04-15T09:48:16;29.45;;;15.63;;
26951;SDS011;14507;52.418;13.398;2023-04-15T09:50:47;24.23;;;16.00;;
26951;SDS011;14507;52.418;13.398;2023-04-15T09:53:17;23.35;;;16.27;;
26951;SDS011;14507;52.418;13.398;2023-04-15T09:55:54;22.60;;;16.55;;
26951;SDS011;14507;52.418;13.398;2023-04-15T09:58:28;26.98;;;15.70;;
26951;SDS011;14507;52.418;13.398;2023-04-15T10:00:55;21.60;;;15.20;;
26951;SDS011;14507;52.418;13.398;2023-04-15T10:03:25;24.65;;;16.15;;
26951;SDS011;14507;52.418;13.398;2023-04-15T10:05:53;21.15;;;15.13;;
26951;SDS011;14507;52.418;13.398;2023-04-15T10:08:30;21.77;;;15.38;;
26951;SDS011;14507;52.418;13.398;2023-04-15T10:10:59;26.17;;;15.80;;
26951;SDS011;14507;52.418;13.398;2023-04-15T10:13:26;20.23;;;14.90;;
26951;SDS011;14507;52.418;13.398;2023-04-15T10:16:00;23.20;;;16.00;;
26951;SDS011;14507;52.418;13.398;2023-04-15T10:18:36;18.77;;;14.27;;
26951;SDS011;14507;52.418;13.398;2023-04-15T10:21:05;18.75;;;14.05;;
26951;SDS011;14507;52.418;13.398;2023-04-15T10:23:32;25.40;;;15.00;;
26951;SDS011;14507;52.418;13.398;2023-04-15T10:25:58;20.98;;;14.98;;
26951;SDS011;14507;52.418;13.398;2023-04-15T10:28:24;20.50;;;14.95;;
26951;SDS011;14507;52.418;13.398;2023-04-15T10:30:51;20.92;;;14.60;;
26951;SDS011;14507;52.418;13.398;2023-04-15T10:33:18;21.83;;;14.15;;
26951;SDS011;14507;52.418;13.398;2023-04-15T10:35:47;26.00;;;14.77;;
26951;SDS011;14507;52.418;13.398;2023-04-15T10:38:33;24.00;;;15.77;;
26951;SDS011;14507;52.418;13.398;2023-04-15T10:41:20;20.73;;;14.77;;
26951;SDS011;14507;52.418;13.398;2023-04-15T10:43:50;20.13;;;14.32;;
26951;SDS011;14507;52.418;13.398;2023-04-15T10:46:41;18.23;;;13.48;;
26951;SDS011;14507;52.418;13.398;2023-04-15T10:49:14;18.92;;;14.23;;
26951;SDS011;14507;52.418;13.398;2023-04-15T10:51:43;19.85;;;13.32;;
26951;SDS011;14507;52.418;13.398;2023-04-15T10:54:14;21.48;;;14.90;;
26951;SDS011;14507;52.418;13.398;2023-04-15T10:56:44;20.35;;;14.55;;
26951;SDS011;14507;52.418;13.398;2023-04-15T10:59:09;22.45;;;14.55;;
26951;SDS011;14507;52.418;13.398;2023-04-15T11:12:45;17.93;;;13.20;;
26951;SDS011;14507;52.418;13.398;2023-04-15T11:15:28;18.85;;;13.68;;
26951;SDS011;14507;52.418;13.398;2023-04-15T11:20:47;18.55;;;13.52;;
26951;SDS011;14507;52.418;13.398;2023-04-15T11:23:14;19.55;;;13.13;;
26951;SDS011;14507;52.418;13.398;2023-04-15T11:25:42;18.15;;;13.13;;
26951;SDS011;14507;52.418;13.398;2023-04-15T11:28:08;18.48;;;13.18;;
26951;SDS011;14507;52.418;13.398;2023-04-15T11:30:35;20.13;;;13.23;;
26951;SDS011;14507;52.418;13.398;2023-04-15T11:33:05;18.85;;;13.13;;
26951;SDS011;14507;52.418;13.398;2023-04-15T11:35:33;18.58;;;13.02;;
26951;SDS011;14507;52.418;13.398;2023-04-15T11:38:09;20.20;;;13.60;;
26951;SDS011;14507;52.418;13.398;2023-04-15T11:40:36;21.13;;;14.40;;
26951;SDS011;14507;52.418;13.398;2023-04-15T11:43:23;18.90;;;12.95;;
26951;SDS011;14507;52.418;13.398;2023-04-15T11:45:52;18.27;;;13.27;;
26951;SDS011;14507;52.418;13.398;2023-04-15T11:48:18;17.23;;;12.55;;
26951;SDS011;14507;52.418;13.398;2023-04-15T11:50:51;18.23;;;11.82;;
26951;SDS011;14507;52.418;13.398;2023-04-15T11:53:18;18.67;;;13.75;;
26951;SDS011;14507;52.418;13.398;2023-04-15T11:55:44;17.50;;;12.70;;
26951;SDS011;14507;52.418;13.398;2023-04-15T11:58:21;17.33;;;12.32;;
26951;SDS011;14507;52.418;13.398;2023-04-15T12:03:22;16.05;;;12.20;;
26951;SDS011;14507;52.418;13.398;2023-04-15T12:06:11;17.27;;;12.02;;
26951;SDS011;14507;52.418;13.398;2023-04-15T12:11:27;18.20;;;12.65;;
26951;SDS011;14507;52.418;13.398;2023-04-15T12:16:44;17.58;;;11.80;;
26951;SDS011;14507;52.418;13.398;2023-04-15T12:19:13;17.58;;;12.45;;
26951;SDS011;14507;52.418;13.398;2023-04-15T12:21:43;16.00;;;11.38;;
26951;SDS011;14507;52.418;13.398;2023-04-15T12:24:11;16.45;;;11.88;;
26951;SDS011;14507;52.418;13.398;2023-04-15T12:26:56;17.45;;;12.85;;
26951;SDS011;14507;52.418;13.398;2023-04-15T12:29:25;16.83;;;12.25;;
26951;SDS011;14507;52.418;13.398;2023-04-15T12:31:53;16.15;;;11.05;;
26951;SDS011;14507;52.418;13.398;2023-04-15T12:34:25;17.65;;;12.15;;
26951;SDS011;14507;52.418;13.398;2023-04-15T12:36:59;16.27;;;11.65;;
26951;SDS011;14507;52.418;13.398;2023-04-15T12:39:26;14.65;;;11.18;;
26951;SDS011;14507;52.418;13.398;2023-04-15T12:41:53;15.55;;;11.35;;
26951;SDS011;14507;52.418;13.398;2023-04-15T12:44:20;14.05;;;10.52;;
26951;SDS011;14507;52.418;13.398;2023-04-15T12:46:47;15.23;;;11.25;;
26951;SDS011;14507;52.418;13.398;2023-04-15T12:49:14;13.13;;;9.98;;
26951;SDS011;14507;52.418;13.398;2023-04-15T12:51:40;14.40;;;9.90;;
26951;SDS011;14507;52.418;13.398;2023-04-15T12:54:06;13.15;;;9.07;;
26951;SDS011;14507;52.418;13.398;2023-04-15T12:56:32;12.88;;;9.57;;
26951;SDS011;14507;52.418;13.398;2023-04-15T12:58:57;13.77;;;10.40;;
26951;SDS011;14507;52.418;13.398;2023-04-15T13:01:23;13.63;;;10.50;;
26951;SDS011;14507;52.418;13.398;2023-04-15T13:03:48;14.73;;;10.55;;
26951;SDS011;14507;52.418;13.398;2023-04-15T13:06:15;12.45;;;10.00;;
26951;SDS011;14507;52.418;13.398;2023-04-15T13:08:40;17.33;;;10.57;;
26951;SDS011;14507;52.418;13.398;2023-04-15T13:11:06;13.52;;;10.02;;
26951;SDS011;14507;52.418;13.398;2023-04-15T13:13:32;14.63;;;9.63;;
26951;SDS011;14507;52.418;13.398;2023-04-15T13:15:58;11.77;;;8.93;;
26951;SDS011;14507;52.418;13.398;2023-04-15T13:18:23;11.07;;;8.57;;
26951;SDS011;14507;52.418;13.398;2023-04-15T13:20:49;13.18;;;9.35;;
26951;SDS011;14507;52.418;13.398;2023-04-15T13:23:15;12.90;;;9.43;;
26951;SDS011;14507;52.418;13.398;2023-04-15T13:25:41;12.00;;;8.75;;
26951;SDS011;14507;52.418;13.398;2023-04-15T13:28:07;12.32;;;9.23;;
26951;SDS011;14507;52.418;13.398;2023-04-15T13:30:36;12.32;;;8.98;;
26951;SDS011;14507;52.418;13.398;2023-04-15T13:33:02;11.30;;;8.40;;
26951;SDS011;14507;52.418;13.398;2023-04-15T13:35:28;12.45;;;9.02;;
26951;SDS011;14507;52.418;13.398;2023-04-15T13:37:53;13.15;;;8.07;;
26951;SDS011;14507;52.418;13.398;2023-04-15T13:40:20;10.98;;;8.13;;
26951;SDS011;14507;52.418;13.398;2023-04-15T13:42:46;11.32;;;8.18;;
26951;SDS011;14507;52.418;13.398;2023-04-15T13:45:12;10.90;;;8.07;;
26951;SDS011;14507;52.418;13.398;2023-04-15T13:47:38;12.23;;;7.70;;
26951;SDS011;14507;52.418;13.398;2023-04-15T13:50:05;11.80;;;8.02;;
26951;SDS011;14507;52.418;13.398;2023-04-15T13:52:31;12.38;;;7.88;;
26951;SDS011;14507;52.418;13.398;2023-04-15T13:54:56;10.52;;;7.45;;
26951;SDS011;14507;52.418;13.398;2023-04-15T13:57:22;11.85;;;7.55;;
26951;SDS011;14507;52.418;13.398;2023-04-15T13:59:48;11.63;;;7.55;;
26951;SDS011;14507;52.418;13.398;2023-04-15T14:02:13;9.90;;;7.50;;
26951;SDS011;14507;52.418;13.398;2023-04-15T14:04:39;13.57;;;7.75;;
26951;SDS011;14507;52.418;13.398;2023-04-15T14:07:04;10.00;;;7.55;;
26951;SDS011;14507;52.418;13.398;2023-04-15T14:09:30;13.02;;;7.80;;
26951;SDS011;14507;52.418;13.398;2023-04-15T14:11:56;12.02;;;7.93;;
26951;SDS011;14507;52.418;13.398;2023-04-15T14:14:23;12.30;;;8.27;;
26951;SDS011;14507;52.418;13.398;2023-04-15T14:16:49;9.48;;;7.32;;
26951;SDS011;14507;52.418;13.398;2023-04-15T14:19:15;11.60;;;7.40;;
26951;SDS011;14507;52.418;13.398;2023-04-15T14:21:41;9.07;;;6.75;;
26951;SDS011;14507;52.418;13.398;2023-04-15T14:24:06;9.77;;;7.45;;
26951;SDS011;14507;52.418;13.398;2023-04-15T14:26:32;9.88;;;7.03;;
26951;SDS011;14507;52.418;13.398;2023-04-15T14:28:58;11.05;;;8.25;;
26951;SDS011;14507;52.418;13.398;2023-04-15T14:31:23;10.95;;;7.93;;
26951;SDS011;14507;52.418;13.398;2023-04-15T14:33:49;11.30;;;8.13;;
26951;SDS011;14507;52.418;13.398;2023-04-15T14:36:15;10.98;;;7.85;;
26951;SDS011;14507;52.418;13.398;2023-04-15T14:38:40;9.95;;;7.68;;